createdAt,value
2018-09-28T00:00:05.911Z,73.05
2018-09-28T00:01:05.900Z,72.86
2018-09-28T00:02:05.881Z,73.44
2018-09-28T00:03:05.867Z,73.34
2018-09-28T00:04:05.851Z,73.72
2018-09-28T00:05:05.843Z,73.44
2018-09-28T00:06:05.827Z,73.82
2018-09-28T00:07:05.810Z,74.20
2018-09-28T00:08:05.796Z,74.49
2018-09-28T00:09:05.781Z,74.87
2018-09-28T00:10:05.764Z,74.49
2018-09-28T00:11:05.751Z,75.45
2018-09-28T00:12:05.739Z,75.35
2018-09-28T00:13:05.721Z,75.35
2018-09-28T00:14:05.704Z,75.35
2018-09-28T00:15:05.689Z,75.26
2018-09-28T00:16:05.675Z,75.16
2018-09-28T00:17:05.660Z,76.40
2018-09-28T00:18:05.644Z,76.12
2018-09-28T00:19:05.633Z,76.40
2018-09-28T00:20:05.620Z,77.17
2018-09-28T00:21:05.600Z,77.17
2018-09-28T00:22:05.586Z,77.13
2018-09-28T00:23:05.574Z,76.75
2018-09-28T00:24:05.568Z,77.70
2018-09-28T00:25:05.542Z,77.23
2018-09-28T00:26:05.576Z,77.42
2018-09-28T00:27:05.513Z,77.23
2018-09-28T00:28:05.501Z,77.90
2018-09-28T00:29:05.482Z,78.28
2018-09-28T00:30:05.467Z,78.19
2018-09-28T00:31:05.454Z,78.28
2018-09-28T00:32:05.437Z,79.14
2018-09-28T00:33:05.423Z,79.05
2018-09-28T00:34:05.409Z,79.24
2018-09-28T00:35:05.392Z,79.20
2018-09-28T00:36:05.378Z,79.39
2018-09-28T00:37:05.361Z,79.77
2018-09-28T00:38:05.349Z,80.00
2018-09-28T00:39:05.333Z,79.96
2018-09-28T00:40:05.326Z,79.87
2018-09-28T00:41:05.310Z,80.44
2018-09-28T00:42:05.504Z,81.11
2018-09-28T00:43:05.273Z,81.02
2018-09-28T00:44:05.254Z,81.49
2018-09-28T00:45:05.241Z,82.07
2018-09-28T00:46:05.228Z,81.97
2018-09-28T00:47:05.215Z,82.17
2018-09-28T00:48:05.198Z,82.26
2018-09-28T00:49:05.180Z,82.64
2018-09-28T00:50:05.176Z,81.78
2018-09-28T00:51:05.149Z,82.07
2018-09-28T00:52:05.134Z,81.78
2018-09-28T00:53:05.117Z,81.78
2018-09-28T00:54:05.109Z,82.35
2018-09-28T00:55:05.088Z,82.07
2018-09-28T00:56:05.074Z,82.17
2018-09-28T00:57:05.057Z,82.35
2018-09-28T00:58:05.043Z,83.31
2018-09-28T00:59:05.060Z,82.51
2018-09-28T01:00:05.010Z,82.93
2018-09-28T01:01:04.997Z,82.60
2018-09-28T01:02:04.982Z,83.17
2018-09-28T01:03:04.964Z,83.94
2018-09-28T01:04:04.953Z,83.46
2018-09-28T01:05:04.934Z,83.75
2018-09-28T01:06:04.918Z,84.70
2018-09-28T01:07:04.902Z,84.89
2018-09-28T01:08:04.888Z,85.28
2018-09-28T01:09:04.874Z,84.89
2018-09-28T01:10:04.858Z,85.09
2018-09-28T01:11:04.839Z,84.99
2018-09-28T01:12:04.827Z,84.89
2018-09-28T01:13:05.128Z,84.70
2018-09-28T01:14:05.113Z,84.89
2018-09-28T01:15:04.781Z,84.99
2018-09-28T01:16:04.764Z,84.99
2018-09-28T01:17:04.750Z,85.28
2018-09-28T01:18:04.740Z,84.70
2018-09-28T01:19:04.721Z,85.09
2018-09-28T01:20:04.707Z,85.38
2018-09-28T01:21:04.688Z,85.38
2018-09-28T01:22:04.680Z,85.66
2018-09-28T01:23:04.656Z,85.66
2018-09-28T01:24:04.646Z,86.71
2018-09-28T01:25:04.624Z,86.52
2018-09-28T01:26:04.612Z,86.61
2018-09-28T01:27:04.602Z,86.71
2018-09-28T01:28:04.579Z,86.90
2018-09-28T01:29:04.565Z,86.52
2018-09-28T01:30:04.548Z,86.52
2018-09-28T01:31:04.864Z,86.52
2018-09-28T01:32:04.518Z,86.90
2018-09-28T01:33:04.504Z,86.33
2018-09-28T01:34:04.486Z,87.00
2018-09-28T01:35:04.468Z,86.61
2018-09-28T01:36:04.459Z,86.43
2018-09-28T01:37:04.440Z,86.43
2018-09-28T01:38:04.430Z,85.85
2018-09-28T01:39:04.410Z,85.66
2018-09-28T01:40:04.392Z,85.66
2018-09-28T01:41:04.380Z,86.14
2018-09-28T01:42:04.366Z,86.33
2018-09-28T01:43:04.355Z,85.85
2018-09-28T01:44:04.332Z,85.38
2018-09-28T01:45:04.315Z,85.75
2018-09-28T01:46:04.302Z,86.61
2018-09-28T01:47:04.285Z,86.90
2018-09-28T01:48:04.274Z,87.09
2018-09-28T01:49:04.252Z,87.95
2018-09-28T01:50:04.238Z,88.24
2018-09-28T01:51:04.225Z,87.66
2018-09-28T01:52:04.205Z,87.29
2018-09-28T01:53:04.192Z,87.29
2018-09-28T01:54:04.179Z,87.95
2018-09-28T01:55:04.160Z,87.09
2018-09-28T01:56:04.147Z,87.09
2018-09-28T01:57:04.129Z,88.34
2018-09-28T01:58:04.116Z,88.34
2018-09-28T01:59:04.100Z,87.29
2018-09-28T02:00:04.081Z,87.00
2018-09-28T02:01:04.070Z,86.90
2018-09-28T02:02:04.055Z,87.38
2018-09-28T02:03:04.046Z,86.71
2018-09-28T02:04:04.020Z,86.90
2018-09-28T02:05:04.005Z,86.71
2018-09-28T02:06:03.989Z,86.80
2018-09-28T02:07:03.973Z,86.52
2018-09-28T02:08:03.964Z,86.90
2018-09-28T02:09:03.947Z,86.33
2018-09-28T02:10:03.940Z,86.37
2018-09-28T02:11:03.913Z,85.71
2018-09-28T02:12:03.899Z,85.22
2018-09-28T02:13:03.884Z,86.04
2018-09-28T02:14:03.877Z,85.61
2018-09-28T02:15:03.853Z,85.51
2018-09-28T02:16:03.836Z,85.41
2018-09-28T02:17:03.821Z,84.84
2018-09-28T02:18:03.807Z,84.94
2018-09-28T02:19:03.791Z,84.65
2018-09-28T02:20:03.771Z,85.22
2018-09-28T02:21:03.760Z,84.94
2018-09-28T02:22:03.742Z,84.65
2018-09-28T02:23:03.728Z,84.27
2018-09-28T02:24:03.710Z,84.36
2018-09-28T02:25:03.695Z,84.17
2018-09-28T02:26:03.681Z,84.27
2018-09-28T02:27:03.663Z,84.27
2018-09-28T02:28:03.650Z,84.46
2018-09-28T02:29:03.647Z,84.75
2018-09-28T02:30:03.620Z,84.55
2018-09-28T02:31:03.605Z,84.75
2018-09-28T02:32:03.589Z,85.32
2018-09-28T02:33:03.573Z,84.55
2018-09-28T02:34:03.558Z,85.71
2018-09-28T02:35:03.542Z,86.47
2018-09-28T02:36:03.526Z,86.80
2018-09-28T02:37:03.516Z,86.90
2018-09-28T02:38:03.508Z,86.47
2018-09-28T02:39:03.481Z,85.94
2018-09-28T02:40:03.467Z,85.27
2018-09-28T02:41:03.451Z,85.27
2018-09-28T02:42:03.437Z,85.71
2018-09-28T02:43:03.420Z,86.37
2018-09-28T02:44:03.406Z,86.41
2018-09-28T02:45:03.392Z,86.57
2018-09-28T02:46:03.385Z,86.28
2018-09-28T02:47:03.362Z,85.89
2018-09-28T02:48:03.344Z,85.75
2018-09-28T02:49:03.329Z,85.84
2018-09-28T02:50:03.318Z,86.41
2018-09-28T02:51:03.297Z,85.94
2018-09-28T02:52:03.290Z,86.13
2018-09-28T02:53:03.268Z,86.51
2018-09-28T02:54:03.258Z,86.41
2018-09-28T02:55:03.236Z,86.32
2018-09-28T02:56:03.221Z,86.80
2018-09-28T02:57:03.282Z,86.22
2018-09-28T02:58:03.190Z,86.41
2018-09-28T02:59:03.177Z,86.99
2018-09-28T03:00:03.160Z,86.51
2018-09-28T03:01:03.146Z,86.70
2018-09-28T03:02:03.133Z,87.37
2018-09-28T03:03:03.115Z,87.08
2018-09-28T03:04:03.105Z,87.08
2018-09-28T03:05:03.084Z,88.13
2018-09-28T03:06:03.080Z,88.04
2018-09-28T03:07:03.053Z,88.13
2018-09-28T03:08:03.040Z,88.62
2018-09-28T03:09:03.024Z,88.13
2018-09-28T03:10:03.015Z,88.33
2018-09-28T03:11:02.993Z,88.13
2018-09-28T03:12:02.978Z,88.71
2018-09-28T03:13:02.964Z,88.43
2018-09-28T03:14:02.962Z,88.71
2018-09-28T03:15:02.932Z,88.52
2018-09-28T03:16:02.918Z,88.71
2018-09-28T03:17:02.902Z,88.90
2018-09-28T03:18:02.888Z,89.67
2018-09-28T03:19:02.872Z,89.76
2018-09-28T03:20:02.858Z,89.00
2018-09-28T03:21:02.843Z,89.19
2018-09-28T03:22:02.827Z,89.38
2018-09-28T03:23:02.812Z,89.19
2018-09-28T03:24:02.802Z,89.58
2018-09-28T03:25:02.783Z,89.48
2018-09-28T03:26:02.985Z,89.38
2018-09-28T03:27:02.755Z,90.24
2018-09-28T03:28:02.734Z,89.58
2018-09-28T03:29:02.721Z,90.34
2018-09-28T03:30:02.713Z,90.00
2018-09-28T03:31:02.689Z,89.95
2018-09-28T03:32:02.679Z,89.90
2018-09-28T03:33:02.662Z,90.58
2018-09-28T03:34:02.647Z,90.34
2018-09-28T03:35:02.631Z,90.34
2018-09-28T03:36:02.616Z,90.53
2018-09-28T03:37:02.602Z,91.20
2018-09-28T03:38:02.587Z,91.01
2018-09-28T03:39:02.569Z,91.11
2018-09-28T03:40:02.556Z,91.20
2018-09-28T03:41:02.541Z,91.68
2018-09-28T03:42:02.527Z,91.49
2018-09-28T03:43:02.509Z,91.77
2018-09-28T03:44:02.499Z,91.44
2018-09-28T03:45:02.483Z,90.86
2018-09-28T03:46:02.472Z,91.25
2018-09-28T03:47:02.450Z,91.25
2018-09-28T03:48:02.440Z,91.15
2018-09-28T03:49:02.422Z,91.63
2018-09-28T03:50:02.408Z,91.63
2018-09-28T03:51:02.399Z,91.34
2018-09-28T03:52:02.375Z,91.63
2018-09-28T03:53:02.366Z,92.01
2018-09-28T03:54:02.352Z,91.82
2018-09-28T03:55:02.335Z,92.01
2018-09-28T03:56:02.318Z,92.40
2018-09-28T03:57:02.303Z,93.07
2018-09-28T03:58:02.290Z,93.07
2018-09-28T03:59:02.272Z,92.58
2018-09-28T04:00:02.256Z,92.68
2018-09-28T04:01:02.243Z,92.87
2018-09-28T04:02:02.231Z,92.97
2018-09-28T04:03:02.335Z,93.26
2018-09-28T04:04:02.197Z,93.26
2018-09-28T04:05:02.183Z,93.16
2018-09-28T04:06:02.169Z,93.35
2018-09-28T04:07:02.156Z,93.26
2018-09-28T04:08:02.154Z,93.26
2018-09-28T04:09:02.123Z,93.93
2018-09-28T04:10:02.112Z,94.02
2018-09-28T04:11:02.095Z,93.93
2018-09-28T04:12:02.079Z,94.50
2018-09-28T04:13:02.063Z,94.89
2018-09-28T04:14:02.051Z,95.17
2018-09-28T04:15:02.107Z,95.07
2018-09-28T04:16:02.019Z,95.65
2018-09-28T04:17:02.002Z,95.46
2018-09-28T04:18:01.994Z,95.75
2018-09-28T04:19:01.973Z,95.56
2018-09-28T04:20:01.959Z,95.84
2018-09-28T04:21:01.945Z,95.65
2018-09-28T04:22:01.963Z,95.65
2018-09-28T04:23:01.914Z,95.84
2018-09-28T04:24:01.900Z,96.22
2018-09-28T04:25:01.890Z,96.51
2018-09-28T04:26:01.872Z,96.03
2018-09-28T04:27:01.917Z,96.22
2018-09-28T04:28:01.844Z,96.80
2018-09-28T04:29:01.828Z,96.51
2018-09-28T04:30:01.816Z,96.80
2018-09-28T04:31:01.795Z,97.09
2018-09-28T04:32:01.789Z,97.47
2018-09-28T04:33:01.766Z,98.05
2018-09-28T04:34:01.759Z,97.47
2018-09-28T04:35:01.744Z,98.05
2018-09-28T04:36:01.723Z,98.52
2018-09-28T04:37:01.710Z,98.62
2018-09-28T04:38:01.698Z,98.91
2018-09-28T04:39:01.680Z,98.81
2018-09-28T04:40:01.669Z,98.91
2018-09-28T04:41:01.653Z,99.67
2018-09-28T04:42:01.638Z,99.87
2018-09-28T04:43:01.633Z,99.67
2018-09-28T04:44:01.604Z,99.77
2018-09-28T04:45:01.657Z,99.99
2018-09-28T04:46:01.574Z,99.99
2018-09-28T04:47:01.562Z,99.99
2018-09-28T04:48:01.549Z,99.99
2018-09-28T04:49:01.540Z,99.99
2018-09-28T04:50:01.517Z,99.99
2018-09-28T04:51:01.504Z,99.99
2018-09-28T04:52:01.494Z,99.99
2018-09-28T04:53:01.472Z,99.99
2018-09-28T04:54:01.456Z,99.99
2018-09-28T04:55:01.441Z,99.99
2018-09-28T04:56:01.430Z,99.99
2018-09-28T04:57:01.411Z,99.99
2018-09-28T04:58:01.398Z,99.99
2018-09-28T04:59:01.383Z,99.99
2018-09-28T05:00:01.364Z,99.99
2018-09-28T05:01:01.354Z,99.99
2018-09-28T05:02:01.338Z,99.99
2018-09-28T05:03:01.320Z,99.99
2018-09-28T05:04:01.304Z,99.99
2018-09-28T05:05:01.296Z,99.99
2018-09-28T05:06:01.284Z,99.99
2018-09-28T05:07:01.263Z,99.99
2018-09-28T05:08:01.244Z,99.99
2018-09-28T05:09:01.231Z,99.99
2018-09-28T05:10:01.220Z,99.99
2018-09-28T05:11:01.202Z,99.99
2018-09-28T05:12:01.188Z,99.99
2018-09-28T05:13:01.239Z,99.99
2018-09-28T05:14:01.158Z,99.99
2018-09-28T05:15:01.148Z,99.99
2018-09-28T05:16:01.129Z,99.99
2018-09-28T05:17:01.117Z,99.99
2018-09-28T05:18:01.100Z,99.99
2018-09-28T05:19:01.091Z,99.99
2018-09-28T05:20:01.069Z,99.99
2018-09-28T05:21:01.053Z,99.99
2018-09-28T05:22:01.043Z,99.99
2018-09-28T05:23:01.024Z,99.99
2018-09-28T05:24:01.008Z,99.99
2018-09-28T05:25:00.994Z,99.99
2018-09-28T05:26:00.979Z,99.99
2018-09-28T05:27:00.966Z,99.99
2018-09-28T05:28:00.947Z,99.99
2018-09-28T05:29:00.933Z,99.99
2018-09-28T05:30:00.919Z,99.99
2018-09-28T05:31:00.961Z,99.99
2018-09-28T05:32:00.951Z,99.99
2018-09-28T05:33:00.935Z,99.99
2018-09-28T05:34:00.858Z,99.99
2018-09-28T05:35:00.843Z,99.99
2018-09-28T05:36:00.829Z,99.99
2018-09-28T05:37:00.815Z,99.99
2018-09-28T05:38:00.799Z,99.99
2018-09-28T05:39:00.790Z,99.99
2018-09-28T05:40:00.769Z,99.99
2018-09-28T05:41:00.754Z,99.99
2018-09-28T05:42:00.739Z,99.99
2018-09-28T05:43:00.728Z,99.99
2018-09-28T05:44:00.715Z,99.99
2018-09-28T05:45:00.699Z,99.99
2018-09-28T05:46:00.680Z,99.99
2018-09-28T05:47:00.665Z,99.99
2018-09-28T05:48:00.651Z,99.99
2018-09-28T05:49:00.636Z,99.99
2018-09-28T05:50:00.625Z,99.99
2018-09-28T05:51:00.608Z,99.99
2018-09-28T05:52:00.592Z,99.99
2018-09-28T05:53:00.577Z,99.99
2018-09-28T05:54:00.561Z,99.99
2018-09-28T05:55:00.546Z,99.99
2018-09-28T05:56:00.537Z,99.99
2018-09-28T05:57:00.516Z,99.99
2018-09-28T05:58:00.519Z,99.99
2018-09-28T05:59:00.484Z,99.99
2018-09-28T06:00:00.471Z,99.99
2018-09-28T06:01:00.461Z,99.99
2018-09-28T06:02:00.440Z,99.99
2018-09-28T06:03:00.430Z,99.99
2018-09-28T06:04:00.410Z,99.99
2018-09-28T06:05:00.396Z,99.99
2018-09-28T06:06:00.383Z,99.99
2018-09-28T06:07:00.368Z,99.99
2018-09-28T06:08:00.349Z,99.99
2018-09-28T06:09:00.335Z,99.99
2018-09-28T06:10:00.320Z,99.99
2018-09-28T06:11:00.305Z,99.99
2018-09-28T06:12:00.289Z,99.99
2018-09-28T06:13:00.274Z,99.99
2018-09-28T06:14:00.263Z,99.99
2018-09-28T06:15:00.244Z,99.99
2018-09-28T06:16:00.228Z,99.99
2018-09-28T06:17:00.215Z,99.99
2018-09-28T06:18:00.284Z,99.99
2018-09-28T06:19:00.223Z,99.99
2018-09-28T06:20:00.168Z,99.99
2018-09-28T06:21:00.153Z,99.99
2018-09-28T06:22:00.144Z,99.99
2018-09-28T06:23:00.122Z,99.99
2018-09-28T06:24:00.148Z,99.99
2018-09-28T06:25:00.092Z,99.99
2018-09-28T06:26:00.148Z,99.99
2018-09-28T06:27:00.062Z,99.99
2018-09-28T06:28:00.047Z,99.99
2018-09-28T06:29:00.036Z,99.99
2018-09-28T06:30:00.070Z,99.99
2018-09-28T06:31:00.011Z,99.99
2018-09-28T06:31:59.987Z,99.99
2018-09-28T06:32:59.971Z,99.99
2018-09-28T06:33:59.959Z,99.99
2018-09-28T06:34:59.944Z,99.99
2018-09-28T06:35:59.985Z,99.99
2018-09-28T06:36:59.913Z,99.99
2018-09-28T06:37:59.905Z,99.99
2018-09-28T06:38:59.891Z,99.99
2018-09-28T06:39:59.869Z,99.99
2018-09-28T06:40:59.848Z,99.99
2018-09-28T06:41:59.899Z,99.99
2018-09-28T06:42:59.823Z,99.99
2018-09-28T06:43:59.803Z,99.99
2018-09-28T06:44:59.787Z,99.99
2018-09-28T06:45:59.777Z,99.99
2018-09-28T06:46:59.759Z,99.99
2018-09-28T06:47:59.913Z,99.99
2018-09-28T06:48:59.731Z,99.99
2018-09-28T06:49:59.712Z,99.99
2018-09-28T06:50:59.699Z,99.99
2018-09-28T06:51:59.680Z,99.99
2018-09-28T06:52:59.666Z,99.99
2018-09-28T06:53:59.699Z,99.99
2018-09-28T06:54:59.641Z,99.99
2018-09-28T06:55:59.620Z,99.99
2018-09-28T06:56:59.605Z,99.99
2018-09-28T06:57:59.644Z,99.99
2018-09-28T06:58:59.578Z,99.99
2018-09-28T06:59:59.599Z,99.99
2018-09-28T07:00:59.544Z,99.99
2018-09-28T07:01:59.529Z,99.99
2018-09-28T07:02:59.515Z,99.99
2018-09-28T07:03:59.545Z,99.99
2018-09-28T07:04:59.488Z,99.99
2018-09-28T07:05:59.572Z,99.99
2018-09-28T07:06:59.456Z,99.99
2018-09-28T07:07:59.451Z,99.99
2018-09-28T07:08:59.422Z,99.99
2018-09-28T07:09:59.409Z,99.99
2018-09-28T07:10:59.397Z,99.99
2018-09-28T07:11:59.486Z,99.99
2018-09-28T07:12:59.364Z,99.99
2018-09-28T07:13:59.350Z,99.99
2018-09-28T07:14:59.336Z,99.99
2018-09-28T07:15:59.320Z,99.58
2018-09-28T07:16:59.310Z,99.67
2018-09-28T07:17:59.399Z,98.62
2018-09-28T07:18:59.277Z,98.81
2018-09-28T07:19:59.262Z,98.71
2018-09-28T07:20:59.247Z,98.62
2018-09-28T07:21:59.231Z,98.05
2018-09-28T07:22:59.232Z,97.38
2018-09-28T07:23:59.319Z,97.38
2018-09-28T07:24:59.197Z,97.47
2018-09-28T07:25:59.171Z,97.38
2018-09-28T07:26:59.156Z,97.95
2018-09-28T07:27:59.143Z,97.38
2018-09-28T07:28:59.141Z,97.66
2018-09-28T07:29:59.193Z,97.09
2018-09-28T07:30:59.098Z,96.99
2018-09-28T07:31:59.085Z,96.94
2018-09-28T07:32:59.067Z,96.37
2018-09-28T07:33:59.050Z,96.84
2018-09-28T07:34:59.043Z,95.98
2018-09-28T07:35:59.195Z,95.79
2018-09-28T07:36:59.138Z,95.60
2018-09-28T07:37:59.003Z,95.03
2018-09-28T07:38:58.979Z,94.93
2018-09-28T07:39:58.963Z,94.55
2018-09-28T07:40:58.949Z,94.84
2018-09-28T07:41:59.027Z,94.07
2018-09-28T07:42:58.916Z,94.26
2018-09-28T07:43:58.905Z,94.64
2018-09-28T07:44:58.929Z,94.17
2018-09-28T07:45:58.877Z,94.84
2018-09-28T07:46:58.860Z,94.55
2018-09-28T07:47:59.004Z,94.59
2018-09-28T07:48:58.829Z,94.21
2018-09-28T07:49:58.825Z,94.31
2018-09-28T07:50:58.799Z,93.93
2018-09-28T07:51:58.787Z,93.02
2018-09-28T07:52:58.771Z,93.06
2018-09-28T07:53:58.758Z,93.35
2018-09-28T07:54:58.742Z,92.44
2018-09-28T07:55:58.727Z,92.15
2018-09-28T07:56:58.717Z,92.63
2018-09-28T07:57:58.705Z,92.44
2018-09-28T07:58:58.702Z,92.54
2018-09-28T07:59:58.671Z,92.25
2018-09-28T08:00:58.657Z,92.06
2018-09-28T08:01:58.641Z,90.81
2018-09-28T08:02:58.634Z,91.10
2018-09-28T08:03:58.671Z,90.81
2018-09-28T08:04:58.604Z,91.58
2018-09-28T08:05:58.591Z,91.39
2018-09-28T08:06:58.573Z,91.19
2018-09-28T08:07:58.555Z,91.19
2018-09-28T08:08:58.540Z,90.72
2018-09-28T08:09:58.525Z,89.86
2018-09-28T08:10:58.523Z,88.70
2018-09-28T08:11:58.496Z,88.23
2018-09-28T08:12:58.479Z,88.80
2018-09-28T08:13:58.466Z,88.61
2018-09-28T08:14:58.456Z,89.23
2018-09-28T08:15:58.446Z,89.47
2018-09-28T08:16:58.425Z,89.28
2018-09-28T08:17:58.630Z,89.57
2018-09-28T08:18:58.402Z,88.90
2018-09-28T08:19:58.380Z,88.61
2018-09-28T08:20:58.365Z,88.03
2018-09-28T08:21:58.351Z,87.55
2018-09-28T08:22:58.336Z,87.55
2018-09-28T08:23:58.324Z,87.17
2018-09-28T08:24:58.306Z,87.08
2018-09-28T08:25:58.292Z,86.31
2018-09-28T08:26:58.277Z,87.74
2018-09-28T08:27:58.266Z,87.84
2018-09-28T08:28:58.250Z,87.27
2018-09-28T08:29:58.238Z,87.94
2018-09-28T08:30:58.217Z,90.23
2018-09-28T08:31:58.209Z,91.49
2018-09-28T08:32:58.189Z,91.86
2018-09-28T08:33:58.177Z,92.54
2018-09-28T08:34:58.163Z,94.07
2018-09-28T08:35:58.146Z,93.88
2018-09-28T08:36:58.133Z,94.55
2018-09-28T08:37:58.125Z,94.74
2018-09-28T08:38:58.100Z,94.55
2018-09-28T08:39:58.089Z,95.70
2018-09-28T08:40:58.076Z,96.56
2018-09-28T08:41:58.134Z,95.75
2018-09-28T08:42:58.042Z,95.60
2018-09-28T08:43:58.034Z,95.70
2018-09-28T08:44:58.020Z,95.60
2018-09-28T08:45:58.002Z,95.41
2018-09-28T08:46:57.993Z,95.12
2018-09-28T08:47:57.971Z,94.64
2018-09-28T08:48:58.312Z,94.64
2018-09-28T08:49:57.945Z,94.50
2018-09-28T08:50:57.945Z,93.83
2018-09-28T08:51:57.916Z,93.35
2018-09-28T08:52:57.901Z,93.06
2018-09-28T08:53:57.895Z,92.01
2018-09-28T08:54:57.872Z,92.10
2018-09-28T08:55:57.865Z,92.30
2018-09-28T08:56:57.846Z,92.20
2018-09-28T08:57:57.830Z,91.63
2018-09-28T08:58:57.815Z,91.57
2018-09-28T08:59:57.804Z,90.33
2018-09-28T09:00:57.788Z,90.04
2018-09-28T09:01:57.775Z,89.27
2018-09-28T09:02:57.763Z,88.22
2018-09-28T09:03:57.747Z,89.47
2018-09-28T09:04:57.733Z,88.41
2018-09-28T09:05:57.719Z,87.35
2018-09-28T09:06:57.705Z,87.98
2018-09-28T09:07:57.691Z,86.92
2018-09-28T09:08:57.677Z,84.42
2018-09-28T09:09:57.664Z,83.56
2018-09-28T09:10:57.651Z,82.45
2018-09-28T09:11:57.643Z,82.45
2018-09-28T09:12:57.636Z,82.26
2018-09-28T09:13:57.618Z,81.78
2018-09-28T09:14:57.597Z,82.26
2018-09-28T09:15:57.594Z,82.74
2018-09-28T09:16:57.574Z,81.68
2018-09-28T09:17:57.592Z,82.74
2018-09-28T09:18:57.551Z,84.08
2018-09-28T09:19:57.582Z,83.27
2018-09-28T09:20:57.531Z,84.14
2018-09-28T09:21:57.510Z,83.94
2018-09-28T09:22:57.495Z,84.52
2018-09-28T09:23:57.543Z,83.75
2018-09-28T09:24:57.470Z,85.10
2018-09-28T09:25:57.459Z,84.42
2018-09-28T09:26:57.445Z,84.52
2018-09-28T09:27:57.435Z,84.23
2018-09-28T09:28:57.421Z,84.52
2018-09-28T09:29:57.408Z,83.27
2018-09-28T09:30:57.391Z,83.37
2018-09-28T09:31:57.386Z,83.08
2018-09-28T09:32:57.363Z,83.18
2018-09-28T09:33:57.352Z,81.35
2018-09-28T09:34:57.341Z,80.78
2018-09-28T09:35:57.328Z,80.35
2018-09-28T09:36:57.312Z,79.72
2018-09-28T09:37:57.302Z,79.01
2018-09-28T09:38:57.290Z,77.38
2018-09-28T09:39:57.272Z,76.90
2018-09-28T09:40:57.262Z,76.67
2018-09-28T09:41:57.244Z,77.19
2018-09-28T09:42:57.244Z,76.77
2018-09-28T09:43:57.219Z,77.25
2018-09-28T09:44:57.213Z,76.86
2018-09-28T09:45:57.206Z,77.34
2018-09-28T09:46:57.177Z,77.00
2018-09-28T09:47:57.164Z,76.77
2018-09-28T09:48:57.152Z,76.00
2018-09-28T09:49:57.138Z,76.81
2018-09-28T09:50:57.133Z,76.81
2018-09-28T09:51:57.115Z,76.04
2018-09-28T09:52:57.103Z,76.29
2018-09-28T09:53:57.082Z,76.23
2018-09-28T09:54:57.074Z,75.85
2018-09-28T09:55:57.054Z,74.89
2018-09-28T09:56:57.041Z,74.98
2018-09-28T09:57:57.029Z,74.51
2018-09-28T09:58:57.020Z,74.89
2018-09-28T09:59:57.000Z,74.79
2018-09-28T10:00:56.987Z,74.79
2018-09-28T10:01:56.977Z,74.26
2018-09-28T10:02:56.962Z,73.87
2018-09-28T10:03:56.948Z,74.35
2018-09-28T10:04:56.937Z,74.44
2018-09-28T10:05:56.921Z,73.58
2018-09-28T10:06:56.904Z,72.43
2018-09-28T10:07:56.897Z,72.05
2018-09-28T10:08:56.882Z,71.09
2018-09-28T10:09:57.188Z,71.66
2018-09-28T10:10:56.849Z,71.09
2018-09-28T10:11:56.841Z,72.91
2018-09-28T10:12:56.823Z,72.81
2018-09-28T10:13:56.820Z,72.05
2018-09-28T10:14:56.803Z,71.66
2018-09-28T10:15:56.785Z,71.47
2018-09-28T10:16:56.783Z,69.93
2018-09-28T10:17:56.758Z,69.07
2018-09-28T10:18:56.743Z,69.65
2018-09-28T10:19:56.731Z,69.65
2018-09-28T10:20:56.718Z,71.12
2018-09-28T10:21:56.703Z,68.59
2018-09-28T10:22:56.689Z,67.63
2018-09-28T10:23:56.688Z,67.54
2018-09-28T10:24:56.665Z,66.61
2018-09-28T10:25:56.652Z,67.57
2018-09-28T10:26:56.692Z,65.91
2018-09-28T10:27:56.675Z,65.43
2018-09-28T10:28:56.611Z,66.71
2018-09-28T10:29:56.608Z,65.46
2018-09-28T10:30:56.585Z,65.84
2018-09-28T10:31:56.565Z,65.27
2018-09-28T10:32:56.554Z,63.83
2018-09-28T10:33:56.542Z,62.29
2018-09-28T10:34:56.536Z,61.62
2018-09-28T10:35:56.520Z,60.66
2018-09-28T10:36:56.509Z,60.18
2018-09-28T10:37:56.490Z,59.70
2018-09-28T10:38:56.797Z,60.50
2018-09-28T10:39:56.465Z,59.25
2018-09-28T10:40:56.651Z,58.58
2018-09-28T10:41:56.436Z,58.87
2018-09-28T10:42:56.427Z,58.58
2018-09-28T10:43:56.412Z,58.87
2018-09-28T10:44:56.398Z,59.06
2018-09-28T10:45:56.385Z,58.61
2018-09-28T10:46:56.374Z,57.75
2018-09-28T10:47:56.362Z,58.32
2018-09-28T10:48:56.348Z,57.00
2018-09-28T10:49:56.337Z,56.16
2018-09-28T10:50:56.374Z,54.91
2018-09-28T10:51:56.453Z,54.14
2018-09-28T10:52:56.464Z,53.98
2018-09-28T10:53:56.285Z,53.62
2018-09-28T10:54:56.316Z,52.87
2018-09-28T10:55:56.260Z,51.34
2018-09-28T10:56:56.250Z,51.17
2018-09-28T10:57:56.256Z,49.43
2018-09-28T10:58:56.309Z,49.55
2018-09-28T10:59:56.217Z,48.90
2018-09-28T11:00:56.204Z,48.03
2018-09-28T11:01:56.205Z,47.75
2018-09-28T11:02:56.185Z,47.45
2018-09-28T11:03:56.172Z,47.53
2018-09-28T11:04:56.167Z,48.49
2018-09-28T11:05:56.152Z,48.40
2018-09-28T11:06:56.142Z,48.97
2018-09-28T11:07:56.132Z,48.69
2018-09-28T11:08:56.184Z,48.30
2018-09-28T11:09:56.109Z,48.40
2018-09-28T11:10:56.099Z,48.30
2018-09-28T11:11:56.087Z,47.31
2018-09-28T11:12:56.083Z,48.06
2018-09-28T11:13:56.069Z,48.57
2018-09-28T11:14:56.061Z,49.15
2018-09-28T11:15:56.043Z,48.95
2018-09-28T11:16:56.043Z,49.24
2018-09-28T11:17:56.033Z,49.24
2018-09-28T11:18:56.082Z,50.01
2018-09-28T11:19:56.003Z,49.89
2018-09-28T11:20:55.992Z,49.00
2018-09-28T11:21:56.208Z,49.38
2018-09-28T11:22:55.975Z,49.99
2018-09-28T11:23:55.967Z,49.96
2018-09-28T11:24:55.954Z,49.87
2018-09-28T11:25:55.942Z,50.54
2018-09-28T11:26:55.929Z,50.54
2018-09-28T11:27:55.919Z,51.21
2018-09-28T11:28:55.907Z,50.83
2018-09-28T11:29:55.897Z,51.41
2018-09-28T11:30:55.898Z,50.35
2018-09-28T11:31:56.201Z,51.12
2018-09-28T11:32:55.862Z,51.41
2018-09-28T11:33:55.853Z,51.41
2018-09-28T11:35:55.839Z,51.89
2018-09-28T11:36:55.820Z,53.23
2018-09-28T11:37:55.810Z,53.14
2018-09-28T11:38:55.798Z,52.37
2018-09-28T11:39:55.791Z,53.33
2018-09-28T11:40:55.778Z,53.43
2018-09-28T11:41:55.765Z,53.33
2018-09-28T11:42:55.755Z,53.23
2018-09-28T11:43:55.744Z,53.33
2018-09-28T11:44:55.735Z,54.49
2018-09-28T11:45:55.738Z,54.20
2018-09-28T11:46:55.714Z,53.69
2018-09-28T11:47:55.709Z,54.27
2018-09-28T11:48:55.689Z,53.78
2018-09-28T11:49:55.676Z,54.08
2018-09-28T11:50:55.998Z,53.40
2018-09-28T11:51:55.655Z,53.02
2018-09-28T11:52:55.663Z,53.02
2018-09-28T11:53:55.642Z,52.44
2018-09-28T11:54:55.632Z,52.66
2018-09-28T11:55:55.610Z,52.40
2018-09-28T11:56:55.600Z,50.76
2018-09-28T11:57:55.592Z,49.91
2018-09-28T11:58:55.580Z,49.82
2018-09-28T11:59:55.568Z,49.27
2018-09-28T12:00:55.556Z,48.97
2018-09-28T12:01:55.545Z,47.45
2018-09-28T12:02:55.536Z,46.40
2018-09-28T12:03:55.527Z,45.72
2018-09-28T12:04:55.512Z,46.01
2018-09-28T12:05:55.509Z,46.11
2018-09-28T12:06:55.660Z,44.46
2018-09-28T12:07:55.483Z,44.39
2018-09-28T12:08:55.478Z,44.10
2018-09-28T12:09:55.464Z,44.39
2018-09-28T12:10:55.450Z,44.10
2018-09-28T12:11:55.442Z,44.20
2018-09-28T12:12:55.430Z,44.01
2018-09-28T12:13:55.420Z,44.46
2018-09-28T12:14:55.407Z,44.95
2018-09-28T12:15:55.725Z,44.08
2018-09-28T12:16:55.395Z,44.37
2018-09-28T12:17:55.384Z,43.89
2018-09-28T12:18:55.379Z,44.18
2018-09-28T12:19:55.357Z,43.72
2018-09-28T12:20:55.349Z,44.10
2018-09-28T12:21:55.342Z,43.91
2018-09-28T12:22:55.333Z,44.01
2018-09-28T12:23:55.318Z,42.94
2018-09-28T12:24:55.316Z,43.24
2018-09-28T12:25:55.307Z,43.62
2018-09-28T12:26:55.299Z,44.49
2018-09-28T12:27:55.283Z,43.74
2018-09-28T12:28:55.266Z,42.97
2018-09-28T12:29:55.259Z,42.68
2018-09-28T12:30:55.248Z,42.97
2018-09-28T12:31:55.243Z,43.16
2018-09-28T12:32:55.229Z,42.77
2018-09-28T12:33:55.219Z,43.35
2018-09-28T12:34:55.210Z,42.87
2018-09-28T12:35:55.214Z,42.48
2018-09-28T12:36:55.188Z,41.81
2018-09-28T12:37:55.182Z,42.29
2018-09-28T12:38:55.210Z,42.10
2018-09-28T12:39:55.236Z,41.81
2018-09-28T12:40:55.151Z,41.42
2018-09-28T12:41:55.142Z,41.63
2018-09-28T12:42:55.131Z,41.73
2018-09-28T12:43:55.123Z,42.41
2018-09-28T12:44:55.269Z,42.02
2018-09-28T12:45:55.104Z,42.70
2018-09-28T12:46:55.097Z,42.02
2018-09-28T12:47:55.085Z,42.89
2018-09-28T12:48:55.075Z,42.10
2018-09-28T12:49:55.068Z,42.00
2018-09-28T12:50:55.061Z,42.94
2018-09-28T12:51:55.045Z,42.97
2018-09-28T12:52:55.037Z,42.68